Time;durP1;ratioP1;P1;durP2;ratioP2;P2;SDS_P1;SDS_P2;PMS_P1;PMS_P2;Temp;Humidity;BMP_temperature;BMP_pressure;BME280_temperature;BME280_humidity;BME280_pressure;Samples;Min_cycle;Max_cycle;Signal;HPM_P1;HPM_P2
2022/10/11 00:01:33;;;;;;;;;;;;;;;;;;5015200;28;19964;-72
2022/10/11 00:03:58;;;;;;;;;;;;;;;;;;5008975;28;20344;-71
2022/10/11 00:06:23;;;;;;;;;;;;;;;;;;5012799;28;20320;-70
2022/10/11 00:08:48;;;;;;;;;;;;;;;;;;5015565;28;20416;-70
2022/10/11 00:11:13;;;;;;;;;;;;;;;;;;5024497;28;19921;-70
2022/10/11 00:13:39;;;;;;;;;;;;;;;;;;5010055;28;19940;-70
2022/10/11 00:16:04;;;;;;;;;;;;;;;;;;5000087;28;19922;-70
2022/10/11 00:18:29;;;;;;;;;;;;;;;;;;5014868;28;19940;-70
2022/10/11 00:20:54;;;;;;;;;;;;;;;;;;5009478;28;19921;-70
2022/10/11 00:23:19;;;;;;;;;;;;;;;;;;5011217;28;19913;-70
2022/10/11 00:25:44;;;;;;;;;;;;;;;;;;5014714;28;20362;-70
2022/10/11 00:28:09;;;;;;;;;;;;;;;;;;5018783;28;19921;-70
2022/10/11 00:30:34;;;;;;;;;;;;;;;;;;5008744;28;19913;-70
2022/10/11 00:33:00;;;;;;;;;;;;;;;;;;5008271;28;20298;-72
2022/10/11 00:35:25;;;;;;;;;;;;;;;;;;5012659;28;19949;-72
2022/10/11 00:37:50;;;;;;;;;;;;;;;;;;5017311;28;19951;-72
2022/10/11 00:40:15;;;;;;;;;;;;;;;;;;5013262;28;19920;-73
2022/10/11 00:42:40;;;;;;;;;;;;;;;;;;5017992;28;19913;-73
2022/10/11 00:45:05;;;;;;;;;;;;;;;;;;5012170;28;19917;-72
2022/10/11 00:47:30;;;;;;;;;;;;;;;;;;5027037;28;20000;-73
2022/10/11 00:49:55;;;;;;;;;;;;;;;;;;5016272;28;19917;-73
2022/10/11 00:52:21;;;;;;;;;;;;;;;;;;5028254;28;20012;-73
2022/10/11 00:54:46;;;;;;;;;;;;;;;;;;5018364;28;19952;-73
2022/10/11 00:57:11;;;;;;;;;;;;;;;;;;5012835;28;19917;-70
2022/10/11 00:59:36;;;;;;;;;;;;;;;;;;5007379;28;20366;-70
2022/10/11 01:02:01;;;;;;;;;;;;;;;;;;5019179;28;19924;-70
2022/10/11 01:04:26;;;;;;;;;;;;;;;;;;5029973;28;19917;-70
2022/10/11 01:06:51;;;;;;;;;;;;;;;;;;5001089;28;20553;-70
2022/10/11 01:09:16;;;;;;;;;;;;;;;;;;5019078;28;20044;-70
2022/10/11 01:11:42;;;;;;;;;;;;;;;;;;5013375;28;20222;-69
2022/10/11 01:14:08;;;;;;;;;;;;;;;;;;5013305;28;20336;-69
2022/10/11 01:16:33;;;;;;;;;;;;;;;;;;5010821;28;19918;-70
2022/10/11 01:18:58;;;;;;;;;;;;;;;;;;5020028;28;19922;-69
2022/10/11 01:21:23;;;;;;;;;;;;;;;;;;5001584;28;19975;-69
2022/10/11 01:23:48;;;;;;;;;;;;;;;;;;5022499;28;19921;-70
2022/10/11 01:26:13;;;;;;;;;;;;;;;;;;5008514;28;19918;-70
2022/10/11 01:28:38;;;;;;;;;;;;;;;;;;5012379;28;19921;-70
2022/10/11 01:31:03;;;;;;;;;;;;;;;;;;5007633;28;19921;-69
2022/10/11 01:33:29;;;;;;;;;;;;;;;;;;5021680;28;19918;-69
2022/10/11 01:35:54;;;;;;;;;;;;;;;;;;5003026;28;19915;-70
2022/10/11 01:38:19;;;;;;;;;;;;;;;;;;5007373;28;19976;-69
2022/10/11 01:40:44;;;;;;;;;;;;;;;;;;5011481;28;19988;-70
2022/10/11 01:43:09;;;;;;;;;;;;;;;;;;5016439;28;19959;-70
2022/10/11 01:45:34;;;;;;;;;;;;;;;;;;5015666;28;19925;-70
2022/10/11 01:47:59;;;;;;;;;;;;;;;;;;5012546;28;19944;-70
2022/10/11 01:50:24;;;;;;;;;;;;;;;;;;5011341;28;19921;-70
2022/10/11 01:52:49;;;;;;;;;;;;;;;;;;5018422;28;19939;-70
2022/10/11 01:55:15;;;;;;;;;;;;;;;;;;5013167;28;19914;-70
2022/10/11 01:57:40;;;;;;;;;;;;;;;;;;5022960;28;19952;-72
2022/10/11 02:00:05;;;;;;;;;;;;;;;;;;5024441;28;20385;-72
2022/10/11 02:02:30;;;;;;;;;;;;;;;;;;5015018;28;20008;-72
2022/10/11 02:04:55;;;;;;;;;;;;;;;;;;5012268;28;20008;-72
2022/10/11 02:07:21;;;;;;;;;;;;;;;;;;5012208;28;19925;-72
2022/10/11 02:09:46;;;;;;;;;;;;;;;;;;5016653;28;20270;-72
2022/10/11 02:12:11;;;;;;;;;;;;;;;;;;5011667;28;19925;-70
2022/10/11 02:14:37;;;;;;;;;;;;;;;;;;4964560;28;2755273;-70
2022/10/11 02:17:06;;;;;;;;;;;;;;;;;;5010201;28;19921;-70
2022/10/11 02:19:31;;;;;;;;;;;;;;;;;;5010888;28;19952;-70
2022/10/11 02:21:56;;;;;;;;;;;;;;;;;;5011579;28;20022;-72
2022/10/11 02:24:22;;;;;;;;;;;;;;;;;;5008440;28;19983;-72
2022/10/11 02:26:47;;;;;;;;;;;;;;;;;;5018766;28;20383;-72
2022/10/11 02:29:12;;;;;;;;;;;;;;;;;;5014951;28;20428;-72
2022/10/11 02:31:37;;;;;;;;;;;;;;;;;;5015868;28;19913;-72
2022/10/11 02:34:02;;;;;;;;;;;;;;;;;;5014195;28;19924;-72
2022/10/11 02:36:28;;;;;;;;;;;;;;;;;;5016297;28;20012;-72
2022/10/11 02:38:53;;;;;;;;;;;;;;;;;;5005851;28;20472;-72
2022/10/11 02:41:18;;;;;;;;;;;;;;;;;;5015628;28;19914;-72
2022/10/11 02:43:43;;;;;;;;;;;;;;;;;;5010319;28;19920;-73
2022/10/11 02:46:08;;;;;;;;;;;;;;;;;;5021554;28;20016;-71
2022/10/11 02:48:34;;;;;;;;;;;;;;;;;;5013322;28;20292;-70
2022/10/11 02:50:59;;;;;;;;;;;;;;;;;;5016573;28;19968;-71
2022/10/11 02:53:24;;;;;;;;;;;;;;;;;;5011981;28;19971;-71
2022/10/11 02:55:49;;;;;;;;;;;;;;;;;;5013328;28;19940;-71
2022/10/11 02:58:14;;;;;;;;;;;;;;;;;;5019698;28;19913;-71
2022/10/11 03:00:40;;;;;;;;;;;;;;;;;;5020677;28;19913;-71
2022/10/11 03:03:05;;;;;;;;;;;;;;;;;;5020493;28;20320;-71
2022/10/11 03:05:31;;;;;;;;;;;;;;;;;;5018251;28;20363;-71
2022/10/11 03:07:56;;;;;;;;;;;;;;;;;;5010579;28;20016;-70
2022/10/11 03:10:21;;;;;;;;;;;;;;;;;;5006601;28;20012;-70
2022/10/11 03:12:47;;;;;;;;;;;;;;;;;;5018388;28;19917;-70
2022/10/11 03:15:12;;;;;;;;;;;;;;;;;;5026733;28;19925;-70
2022/10/11 03:17:37;;;;;;;;;;;;;;;;;;5025512;28;20003;-70
2022/10/11 03:20:02;;;;;;;;;;;;;;;;;;5011258;28;20369;-70
2022/10/11 03:22:27;;;;;;;;;;;;;;;;;;5011981;28;20340;-70
2022/10/11 03:24:52;;;;;;;;;;;;;;;;;;5001942;28;20374;-70
2022/10/11 03:27:18;;;;;;;;;;;;;;;;;;5014161;28;20015;-71
2022/10/11 03:29:43;;;;;;;;;;;;;;;;;;5010171;28;19956;-71
2022/10/11 03:32:08;;;;;;;;;;;;;;;;;;5020494;28;19944;-71
2022/10/11 03:34:33;;;;;;;;;;;;;;;;;;5012880;28;19914;-70
2022/10/11 03:36:58;;;;;;;;;;;;;;;;;;5012852;28;19917;-71
2022/10/11 03:39:23;;;;;;;;;;;;;;;;;;5006429;28;19917;-71
2022/10/11 03:41:48;;;;;;;;;;;;;;;;;;5012016;28;19913;-71
2022/10/11 03:44:13;;;;;;;;;;;;;;;;;;5010326;28;19975;-71
2022/10/11 03:46:38;;;;;;;;;;;;;;;;;;5014775;28;20011;-71
2022/10/11 03:49:04;;;;;;;;;;;;;;;;;;5013130;28;19919;-71
2022/10/11 03:51:30;;;;;;;;;;;;;;;;;;5029138;28;20404;-71
2022/10/11 03:53:55;;;;;;;;;;;;;;;;;;5018634;28;19928;-71
2022/10/11 03:56:20;;;;;;;;;;;;;;;;;;5020311;28;20313;-71
2022/10/11 03:58:45;;;;;;;;;;;;;;;;;;5025554;28;20388;-71
2022/10/11 04:01:10;;;;;;;;;;;;;;;;;;5014446;28;19913;-71
2022/10/11 04:03:36;;;;;;;;;;;;;;;;;;5029175;28;19967;-71
2022/10/11 04:06:01;;;;;;;;;;;;;;;;;;5024216;28;20449;-70
2022/10/11 04:08:26;;;;;;;;;;;;;;;;;;5012036;28;19920;-70
2022/10/11 04:10:51;;;;;;;;;;;;;;;;;;5011249;28;20416;-70
2022/10/11 04:13:16;;;;;;;;;;;;;;;;;;5027809;28;20374;-70
2022/10/11 04:15:41;;;;;;;;;;;;;;;;;;5008482;28;19976;-70
2022/10/11 04:18:06;;;;;;;;;;;;;;;;;;5003848;28;19913;-70
2022/10/11 04:20:31;;;;;;;;;;;;;;;;;;5016313;28;19932;-70
2022/10/11 04:22:56;;;;;;;;;;;;;;;;;;5008116;28;19918;-71
2022/10/11 04:25:22;;;;;;;;;;;;;;;;;;5008666;28;19918;-70
2022/10/11 04:27:47;;;;;;;;;;;;;;;;;;5020011;28;20313;-71
2022/10/11 04:30:12;;;;;;;;;;;;;;;;;;5008960;28;21524;-70
2022/10/11 04:32:37;;;;;;;;;;;;;;;;;;5011444;28;19922;-70
2022/10/11 04:35:02;;;;;;;;;;;;;;;;;;5019367;28;19917;-70
2022/10/11 04:37:27;;;;;;;;;;;;;;;;;;5013712;28;19960;-70
2022/10/11 04:39:53;;;;;;;;;;;;;;;;;;5021716;28;20049;-71
2022/10/11 04:42:19;;;;;;;;;;;;;;;;;;5013316;28;20067;-71
2022/10/11 04:44:44;;;;;;;;;;;;;;;;;;5014933;28;19917;-70
2022/10/11 04:47:09;;;;;;;;;;;;;;;;;;5009601;28;19921;-70
2022/10/11 04:49:34;;;;;;;;;;;;;;;;;;5025462;28;19941;-70
2022/10/11 04:51:59;;;;;;;;;;;;;;;;;;5012454;28;19921;-70
2022/10/11 04:54:25;;;;;;;;;;;;;;;;;;5012668;28;19944;-70
2022/10/11 04:56:50;;;;;;;;;;;;;;;;;;5012015;28;20015;-70
2022/10/11 04:59:15;;;;;;;;;;;;;;;;;;5012847;28;20018;-73
2022/10/11 05:01:40;;;;;;;;;;;;;;;;;;5004031;28;20584;-73
2022/10/11 05:04:05;;;;;;;;;;;;;;;;;;5005263;28;19922;-71
2022/10/11 05:06:30;;;;;;;;;;;;;;;;;;5008072;28;19961;-71
2022/10/11 05:08:55;;;;;;;;;;;;;;;;;;5017394;28;19917;-71
2022/10/11 05:11:20;;;;;;;;;;;;;;;;;;5008589;28;19972;-70
2022/10/11 05:13:46;;;;;;;;;;;;;;;;;;5019169;28;19952;-70
2022/10/11 05:16:11;;;;;;;;;;;;;;;;;;5007289;28;19925;-71
2022/10/11 05:18:36;;;;;;;;;;;;;;;;;;5004750;28;19927;-71
2022/10/11 05:21:01;;;;;;;;;;;;;;;;;;5000055;28;19921;-71
2022/10/11 05:23:26;;;;;;;;;;;;;;;;;;5008840;28;19913;-71
2022/10/11 05:25:51;;;;;;;;;;;;;;;;;;5022488;28;19921;-71
2022/10/11 05:28:16;;;;;;;;;;;;;;;;;;5019190;28;19936;-72
2022/10/11 05:30:41;;;;;;;;;;;;;;;;;;5015363;28;20165;-72
2022/10/11 05:33:06;;;;;;;;;;;;;;;;;;5015979;28;20326;-70
2022/10/11 05:35:31;;;;;;;;;;;;;;;;;;5016093;28;20350;-70
2022/10/11 05:37:57;;;;;;;;;;;;;;;;;;5012457;28;19956;-71
2022/10/11 05:40:22;;;;;;;;;;;;;;;;;;5014818;28;19917;-70
2022/10/11 05:42:47;;;;;;;;;;;;;;;;;;5014956;28;19913;-70
2022/10/11 05:45:12;;;;;;;;;;;;;;;;;;5033465;28;19913;-70
2022/10/11 05:47:37;;;;;;;;;;;;;;;;;;5003025;28;20000;-70
2022/10/11 05:50:02;;;;;;;;;;;;;;;;;;5017269;28;20349;-70
2022/10/11 05:52:27;;;;;;;;;;;;;;;;;;5003187;28;19917;-70
2022/10/11 05:54:52;;;;;;;;;;;;;;;;;;5011677;28;19918;-70
2022/10/11 05:57:17;;;;;;;;;;;;;;;;;;5012044;28;19922;-70
2022/10/11 05:59:43;;;;;;;;;;;;;;;;;;5014783;28;21891;-71
2022/10/11 06:02:08;;;;;;;;;;;;;;;;;;5015356;28;20963;-70
2022/10/11 06:04:33;;;;;;;;;;;;;;;;;;5004901;28;20362;-70
2022/10/11 06:06:58;;;;;;;;;;;;;;;;;;5011456;28;19914;-70
2022/10/11 06:09:23;;;;;;;;;;;;;;;;;;5009983;28;19967;-71
2022/10/11 06:11:48;;;;;;;;;;;;;;;;;;5032190;28;20429;-70
2022/10/11 06:14:13;;;;;;;;;;;;;;;;;;5016331;28;19948;-70
2022/10/11 06:16:38;;;;;;;;;;;;;;;;;;5005691;28;19922;-70
2022/10/11 06:19:03;;;;;;;;;;;;;;;;;;5005431;28;19928;-70
2022/10/11 06:21:29;;;;;;;;;;;;;;;;;;5015639;28;19913;-70
2022/10/11 06:23:54;;;;;;;;;;;;;;;;;;5025013;28;19935;-70
2022/10/11 06:26:19;;;;;;;;;;;;;;;;;;5011630;28;20286;-70
2022/10/11 06:28:44;;;;;;;;;;;;;;;;;;5018991;28;19920;-70
2022/10/11 06:31:09;;;;;;;;;;;;;;;;;;5020096;28;19959;-70
2022/10/11 06:33:34;;;;;;;;;;;;;;;;;;5014628;28;19914;-70
2022/10/11 06:35:59;;;;;;;;;;;;;;;;;;5021069;28;20373;-70
2022/10/11 06:38:25;;;;;;;;;;;;;;;;;;5019667;28;20297;-70
2022/10/11 06:40:50;;;;;;;;;;;;;;;;;;5008866;28;19914;-70
2022/10/11 06:43:15;;;;;;;;;;;;;;;;;;5018792;28;19992;-70
2022/10/11 06:45:40;;;;;;;;;;;;;;;;;;5015874;28;19957;-70
2022/10/11 06:48:05;;;;;;;;;;;;;;;;;;5013834;28;19961;-70
2022/10/11 06:50:31;;;;;;;;;;;;;;;;;;5018159;28;19929;-71
2022/10/11 06:52:56;;;;;;;;;;;;;;;;;;5001749;28;19944;-70
2022/10/11 06:55:21;;;;;;;;;;;;;;;;;;5010187;28;19917;-70
2022/10/11 06:57:46;;;;;;;;;;;;;;;;;;5004028;28;19925;-71
2022/10/11 07:00:11;;;;;;;;;;;;;;;;;;5008262;28;19972;-70
2022/10/11 07:02:37;;;;;;;;;;;;;;;;;;5031125;28;19914;-70
2022/10/11 07:05:02;;;;;;;;;;;;;;;;;;5031866;28;19927;-70
2022/10/11 07:07:27;;;;;;;;;;;;;;;;;;5033297;28;19920;-70
2022/10/11 07:09:52;;;;;;;;;;;;;;;;;;5029356;28;19917;-70
2022/10/11 07:12:17;;;;;;;;;;;;;;;;;;5029098;28;19924;-71
2022/10/11 07:14:42;;;;;;;;;;;;;;;;;;5033267;28;19921;-70
2022/10/11 07:17:07;;;;;;;;;;;;;;;;;;5031936;28;20472;-70
2022/10/11 07:19:32;;;;;;;;;;;;;;;;;;5032004;28;19917;-70
2022/10/11 07:21:57;;;;;;;;;;;;;;;;;;5033618;28;19913;-70
2022/10/11 07:24:23;;;;;;;;;;;;;;;;;;5033038;28;19917;-70
2022/10/11 07:26:48;;;;;;;;;;;;;;;;;;5029338;28;19917;-70
2022/10/11 07:29:13;;;;;;;;;;;;;;;;;;5033585;28;19913;-70
2022/10/11 07:31:38;;;;;;;;;;;;;;;;;;5032764;28;20015;-70
2022/10/11 07:34:03;;;;;;;;;;;;;;;;;;5032619;28;19982;-71
2022/10/11 07:36:28;;;;;;;;;;;;;;;;;;5032820;28;19959;-70
2022/10/11 07:38:53;;;;;;;;;;;;;;;;;;5030257;28;19913;-70
2022/10/11 07:41:19;;;;;;;;;;;;;;;;;;5027041;28;19909;-70
2022/10/11 07:43:46;;;;;;;;;;;;;;;;;;5027168;28;19959;-70
2022/10/11 07:46:11;;;;;;;;;;;;;;;;;;5031697;28;19929;-70
2022/10/11 07:48:36;;;;;;;;;;;;;;;;;;5017796;28;19914;-71
2022/10/11 07:51:02;;;;;;;;;;;;;;;;;;5013496;28;20321;-70
2022/10/11 07:53:27;;;;;;;;;;;;;;;;;;5030610;28;19920;-70
2022/10/11 07:55:52;;;;;;;;;;;;;;;;;;5032491;28;19917;-70
2022/10/11 07:58:17;;;;;;;;;;;;;;;;;;5025891;28;20369;-70
2022/10/11 08:00:42;;;;;;;;;;;;;;;;;;5032404;28;19913;-70
2022/10/11 08:03:08;;;;;;;;;;;;;;;;;;5032567;28;19924;-71
2022/10/11 08:05:33;;;;;;;;;;;;;;;;;;5033145;28;19913;-70
2022/10/11 08:07:58;;;;;;;;;;;;;;;;;;5031495;28;19919;-71
2022/10/11 08:10:23;;;;;;;;;;;;;;;;;;5016319;28;19917;-72
2022/10/11 08:12:48;;;;;;;;;;;;;;;;;;5022499;28;19952;-71
2022/10/11 08:15:13;;;;;;;;;;;;;;;;;;5022810;28;19917;-71
2022/10/11 08:17:39;;;;;;;;;;;;;;;;;;5021920;28;19920;-70
2022/10/11 08:20:04;;;;;;;;;;;;;;;;;;5032089;28;19913;-71
2022/10/11 08:22:29;;;;;;;;;;;;;;;;;;5015317;28;19920;-71
2022/10/11 08:24:54;;;;;;;;;;;;;;;;;;5032732;28;20368;-71
2022/10/11 08:27:19;;;;;;;;;;;;;;;;;;5029846;28;19959;-71
2022/10/11 08:29:44;;;;;;;;;;;;;;;;;;5022780;28;19909;-71
2022/10/11 08:32:11;;;;;;;;;;;;;;;;;;5013166;28;19909;-71
2022/10/11 08:34:36;;;;;;;;;;;;;;;;;;5013165;28;20287;-71
2022/10/11 08:37:01;;;;;;;;;;;;;;;;;;5012703;28;20362;-70
2022/10/11 08:39:26;;;;;;;;;;;;;;;;;;5012337;28;19920;-70
2022/10/11 08:41:51;;;;;;;;;;;;;;;;;;5013126;28;19960;-71
2022/10/11 08:44:16;;;;;;;;;;;;;;;;;;5011632;28;19914;-71
2022/10/11 08:46:41;;;;;;;;;;;;;;;;;;5012171;28;19964;-71
2022/10/11 08:49:08;;;;;;;;;;;;;;;;;;5012784;28;19925;-71
2022/10/11 08:51:33;;;;;;;;;;;;;;;;;;5015504;28;19916;-70
2022/10/11 08:53:58;;;;;;;;;;;;;;;;;;5012486;28;19910;-71
2022/10/11 08:56:23;;;;;;;;;;;;;;;;;;5012545;28;19910;-71
2022/10/11 08:58:49;;;;;;;;;;;;;;;;;;5012669;28;19952;-70
2022/10/11 09:01:14;;;;;;;;;;;;;;;;;;5012478;28;19917;-71
2022/10/11 09:03:39;;;;;;;;;;;;;;;;;;5012077;28;19910;-70
2022/10/11 09:06:04;;;;;;;;;;;;;;;;;;5012367;28;20008;-70
2022/10/11 09:08:29;;;;;;;;;;;;;;;;;;5012816;28;20289;-70
2022/10/11 09:10:54;;;;;;;;;;;;;;;;;;5012763;28;20309;-71
2022/10/11 09:13:29;;;;;;;;;;;;;;;;;;5012433;28;19913;-71
2022/10/11 09:15:54;;;;;;;;;;;;;;;;;;5012147;28;19917;-71
2022/10/11 09:18:20;;;;;;;;;;;;;;;;;;5012252;28;19917;-71
2022/10/11 09:20:45;;;;;;;;;;;;;;;;;;5014632;28;20007;-71
2022/10/11 09:23:10;;;;;;;;;;;;;;;;;;5030855;28;19913;-71
2022/10/11 09:25:35;;;;;;;;;;;;;;;;;;5031270;28;20407;-71
2022/10/11 09:28:00;;;;;;;;;;;;;;;;;;5030127;28;19913;-71
2022/10/11 09:30:25;;;;;;;;;;;;;;;;;;5014388;28;19961;-71
2022/10/11 09:32:50;;;;;;;;;;;;;;;;;;5032254;28;19910;-71
2022/10/11 09:35:15;;;;;;;;;;;;;;;;;;5025121;28;19929;-70
2022/10/11 09:37:40;;;;;;;;;;;;;;;;;;5011623;28;20020;-71
2022/10/11 09:40:06;;;;;;;;;;;;;;;;;;5012341;28;19933;-71
2022/10/11 09:42:31;;;;;;;;;;;;;;;;;;5012324;28;19909;-71
2022/10/11 09:44:56;;;;;;;;;;;;;;;;;;5012113;28;19913;-70
2022/10/11 09:47:21;;;;;;;;;;;;;;;;;;5018188;28;20396;-70
2022/10/11 09:49:46;;;;;;;;;;;;;;;;;;5031706;28;19916;-71
2022/10/11 09:52:11;;;;;;;;;;;;;;;;;;5032160;28;19917;-71
2022/10/11 09:54:36;;;;;;;;;;;;;;;;;;5023238;28;20346;-70
2022/10/11 09:57:01;;;;;;;;;;;;;;;;;;5012235;28;19984;-71
2022/10/11 09:59:27;;;;;;;;;;;;;;;;;;5011865;28;19961;-70
2022/10/11 10:01:53;;;;;;;;;;;;;;;;;;5012114;28;19925;-71
2022/10/11 10:04:18;;;;;;;;;;;;;;;;;;5011912;28;19913;-71
2022/10/11 10:06:43;;;;;;;;;;;;;;;;;;5012113;28;20384;-71
2022/10/11 10:09:09;;;;;;;;;;;;;;;;;;5014155;28;20265;-70
2022/10/11 10:11:34;;;;;;;;;;;;;;;;;;5014797;28;19918;-71
2022/10/11 10:13:59;;;;;;;;;;;;;;;;;;5015367;28;19913;-71
2022/10/11 10:16:24;;;;;;;;;;;;;;;;;;5015340;28;19917;-70
2022/10/11 10:18:49;;;;;;;;;;;;;;;;;;5015700;28;19909;-71
2022/10/11 10:21:14;;;;;;;;;;;;;;;;;;5015126;28;19909;-71
2022/10/11 10:23:40;;;;;;;;;;;;;;;;;;5015193;28;20376;-71
2022/10/11 10:26:05;;;;;;;;;;;;;;;;;;5013855;28;19921;-71
2022/10/11 10:28:30;;;;;;;;;;;;;;;;;;5014867;28;20332;-71
2022/10/11 10:30:55;;;;;;;;;;;;;;;;;;5016520;28;20395;-71
2022/10/11 10:33:20;;;;;;;;;;;;;;;;;;5030461;28;21789;-71
2022/10/11 10:35:45;;;;;;;;;;;;;;;;;;5017059;28;19968;-71
2022/10/11 10:38:10;;;;;;;;;;;;;;;;;;5034909;28;19913;-71
2022/10/11 10:40:35;;;;;;;;;;;;;;;;;;5026164;28;19909;-72
2022/10/11 10:43:01;;;;;;;;;;;;;;;;;;5014920;28;19914;-71
2022/10/11 10:45:26;;;;;;;;;;;;;;;;;;5014426;28;19961;-71
2022/10/11 10:47:51;;;;;;;;;;;;;;;;;;5015031;28;19925;-71
2022/10/11 10:50:16;;;;;;;;;;;;;;;;;;5017101;28;19910;-71
2022/10/11 10:52:42;;;;;;;;;;;;;;;;;;5014312;28;19916;-71
2022/10/11 10:55:07;;;;;;;;;;;;;;;;;;5014595;28;19909;-71
2022/10/11 10:57:32;;;;;;;;;;;;;;;;;;5014838;28;19936;-71
2022/10/11 10:59:57;;;;;;;;;;;;;;;;;;5014714;28;19914;-72
2022/10/11 11:02:23;;;;;;;;;;;;;;;;;;5008422;28;19910;-71
2022/10/11 11:04:48;;;;;;;;;;;;;;;;;;4994769;28;20001;-71
2022/10/11 11:07:13;;;;;;;;;;;;;;;;;;4994727;28;19917;-72
2022/10/11 11:09:38;;;;;;;;;;;;;;;;;;4994997;28;19918;-71
2022/10/11 11:12:03;;;;;;;;;;;;;;;;;;4994698;28;19922;-71
2022/10/11 11:14:28;;;;;;;;;;;;;;;;;;5008396;28;19910;-71
2022/10/11 11:16:53;;;;;;;;;;;;;;;;;;5014022;28;20332;-72
2022/10/11 11:19:18;;;;;;;;;;;;;;;;;;5008625;28;20371;-73
2022/10/11 11:21:44;;;;;;;;;;;;;;;;;;4994239;28;19913;-72
2022/10/11 11:24:09;;;;;;;;;;;;;;;;;;4994735;28;19955;-72
2022/10/11 11:26:34;;;;;;;;;;;;;;;;;;4994239;28;19921;-72
2022/10/11 11:28:59;;;;;;;;;;;;;;;;;;5000197;28;19909;-72
2022/10/11 11:31:24;;;;;;;;;;;;;;;;;;5013893;28;19916;-72
2022/10/11 11:33:49;;;;;;;;;;;;;;;;;;5014178;28;19909;-72
2022/10/11 11:36:14;;;;;;;;;;;;;;;;;;5014761;28;19909;-72
2022/10/11 11:38:39;;;;;;;;;;;;;;;;;;5030049;28;19913;-72
2022/10/11 11:41:04;;;;;;;;;;;;;;;;;;5033828;28;20281;-72
2022/10/11 11:43:31;;;;;;;;;;;;;;;;;;5019621;28;19914;-73
2022/10/11 11:45:57;;;;;;;;;;;;;;;;;;5029307;28;20325;-72
2022/10/11 11:48:25;;;;;;;;;;;;;;;;;;5025327;28;19917;-73
2022/10/11 11:50:51;;;;;;;;;;;;;;;;;;5013557;28;20513;-72
2022/10/11 11:53:16;;;;;;;;;;;;;;;;;;5031639;28;19913;-72
2022/10/11 11:55:41;;;;;;;;;;;;;;;;;;5033512;28;20406;-72
2022/10/11 11:58:06;;;;;;;;;;;;;;;;;;5030401;28;19995;-72
2022/10/11 12:00:31;;;;;;;;;;;;;;;;;;5031964;28;20016;-72
2022/10/11 12:02:56;;;;;;;;;;;;;;;;;;5032203;28;19917;-73
2022/10/11 12:05:21;;;;;;;;;;;;;;;;;;5027820;28;20024;-72
2022/10/11 12:07:47;;;;;;;;;;;;;;;;;;5032514;28;19961;-73
2022/10/11 12:10:12;;;;;;;;;;;;;;;;;;5023212;28;19913;-72
2022/10/11 12:12:37;;;;;;;;;;;;;;;;;;5032626;28;19963;-72
2022/10/11 12:15:02;;;;;;;;;;;;;;;;;;5029916;28;20011;-74
2022/10/11 12:17:27;;;;;;;;;;;;;;;;;;5029446;28;20278;-72
2022/10/11 12:19:52;;;;;;;;;;;;;;;;;;5023330;28;20431;-72
2022/10/11 12:22:17;;;;;;;;;;;;;;;;;;5028312;28;19917;-70
2022/10/11 12:24:42;;;;;;;;;;;;;;;;;;5030818;28;19919;-71
2022/10/11 12:27:08;;;;;;;;;;;;;;;;;;5021654;28;20358;-70
2022/10/11 12:29:33;;;;;;;;;;;;;;;;;;5031358;28;19924;-70
2022/10/11 12:31:58;;;;;;;;;;;;;;;;;;5012081;28;20294;-71
2022/10/11 12:34:24;;;;;;;;;;;;;;;;;;5022288;28;19909;-72
2022/10/11 12:36:49;;;;;;;;;;;;;;;;;;5028328;28;19913;-71
2022/10/11 12:39:14;;;;;;;;;;;;;;;;;;5027974;28;19920;-71
2022/10/11 12:41:39;;;;;;;;;;;;;;;;;;5031436;28;19952;-71
2022/10/11 12:44:04;;;;;;;;;;;;;;;;;;5018048;28;19914;-71
2022/10/11 12:46:33;;;;;;;;;;;;;;;;;;5013411;28;19952;-71
2022/10/11 12:48:58;;;;;;;;;;;;;;;;;;5028643;28;19913;-72
2022/10/11 12:51:23;;;;;;;;;;;;;;;;;;5019297;28;19914;-71
2022/10/11 12:53:48;;;;;;;;;;;;;;;;;;5017447;28;19916;-72
2022/10/11 12:56:13;;;;;;;;;;;;;;;;;;5032619;28;19917;-73
2022/10/11 12:58:40;;;;;;;;;;;;;;;;;;5031543;28;19909;-72
2022/10/11 13:01:05;;;;;;;;;;;;;;;;;;5031690;28;20408;-73
2022/10/11 13:03:30;;;;;;;;;;;;;;;;;;5031601;28;21521;-71
2022/10/11 13:05:56;;;;;;;;;;;;;;;;;;5026662;28;19987;-72
2022/10/11 13:08:21;;;;;;;;;;;;;;;;;;5029984;28;20341;-71
2022/10/11 13:10:46;;;;;;;;;;;;;;;;;;5024042;28;19964;-72
2022/10/11 13:13:11;;;;;;;;;;;;;;;;;;5028962;28;19913;-72
2022/10/11 13:15:36;;;;;;;;;;;;;;;;;;5030154;28;19917;-72
2022/10/11 13:18:01;;;;;;;;;;;;;;;;;;5031965;28;19909;-72
2022/10/11 13:20:26;;;;;;;;;;;;;;;;;;5030570;28;19913;-72
2022/10/11 13:22:51;;;;;;;;;;;;;;;;;;5026927;28;19917;-71
2022/10/11 13:25:17;;;;;;;;;;;;;;;;;;5031232;28;20361;-71
2022/10/11 13:27:42;;;;;;;;;;;;;;;;;;5031798;28;19939;-72
2022/10/11 13:30:07;;;;;;;;;;;;;;;;;;5031007;28;19913;-70
2022/10/11 13:32:33;;;;;;;;;;;;;;;;;;5029367;28;19917;-71
2022/10/11 13:34:59;;;;;;;;;;;;;;;;;;5027459;28;19920;-72
2022/10/11 13:37:24;;;;;;;;;;;;;;;;;;5020358;28;19914;-71
2022/10/11 13:39:49;;;;;;;;;;;;;;;;;;5028443;28;19921;-73
2022/10/11 13:42:15;;;;;;;;;;;;;;;;;;5031926;28;20376;-73
2022/10/11 13:44:40;;;;;;;;;;;;;;;;;;5034129;28;19917;-73
2022/10/11 13:47:05;;;;;;;;;;;;;;;;;;5036103;28;19913;-75
2022/10/11 13:49:36;;;;;;;;;;;;;;;;;;5025580;28;20617;-74
2022/10/11 13:52:01;;;;;;;;;;;;;;;;;;5015081;28;19960;-74
2022/10/11 13:54:26;;;;;;;;;;;;;;;;;;5030990;28;20041;-73
2022/10/11 13:56:51;;;;;;;;;;;;;;;;;;5035714;28;19909;-71
2022/10/11 13:59:16;;;;;;;;;;;;;;;;;;5033058;28;19999;-71
2022/10/11 14:01:41;;;;;;;;;;;;;;;;;;5027298;28;19947;-71
2022/10/11 14:04:06;;;;;;;;;;;;;;;;;;5034900;28;19913;-72
2022/10/11 14:06:32;;;;;;;;;;;;;;;;;;5033410;28;20292;-72
2022/10/11 14:08:58;;;;;;;;;;;;;;;;;;5022875;28;19921;-72
2022/10/11 14:11:23;;;;;;;;;;;;;;;;;;5028527;28;19924;-72
2022/10/11 14:13:51;;;;;;;;;;;;;;;;;;5027945;28;19913;-73
2022/10/11 14:16:16;;;;;;;;;;;;;;;;;;5033299;28;20057;-73
2022/10/11 14:18:42;;;;;;;;;;;;;;;;;;5034412;28;20028;-73
2022/10/11 14:21:07;;;;;;;;;;;;;;;;;;5034656;28;19917;-75
2022/10/11 14:23:32;;;;;;;;;;;;;;;;;;5021375;28;19924;-71
2022/10/11 14:25:57;;;;;;;;;;;;;;;;;;5015070;28;19913;-72
2022/10/11 14:28:22;;;;;;;;;;;;;;;;;;5018981;28;19971;-72
2022/10/11 14:30:47;;;;;;;;;;;;;;;;;;5034452;28;19913;-72
2022/10/11 14:33:12;;;;;;;;;;;;;;;;;;5027510;28;19970;-73
2022/10/11 14:35:37;;;;;;;;;;;;;;;;;;4997547;28;19910;-72
2022/10/11 14:38:02;;;;;;;;;;;;;;;;;;5015205;28;19968;-72
2022/10/11 14:40:28;;;;;;;;;;;;;;;;;;5025215;28;19913;-72
2022/10/11 14:42:53;;;;;;;;;;;;;;;;;;5033683;28;19961;-71
2022/10/11 14:45:20;;;;;;;;;;;;;;;;;;5033757;28;19917;-71
2022/10/11 14:47:45;;;;;;;;;;;;;;;;;;5034646;28;19956;-71
2022/10/11 14:50:10;;;;;;;;;;;;;;;;;;5019262;28;19922;-71
2022/10/11 14:52:35;;;;;;;;;;;;;;;;;;5015178;28;20223;-72
2022/10/11 14:55:01;;;;;;;;;;;;;;;;;;5028765;28;20525;-72
2022/10/11 14:57:26;;;;;;;;;;;;;;;;;;5022580;28;20016;-72
2022/10/11 14:59:51;;;;;;;;;;;;;;;;;;5029882;28;20301;-73
2022/10/11 15:02:16;;;;;;;;;;;;;;;;;;5034674;28;19915;-72
2022/10/11 15:04:41;;;;;;;;;;;;;;;;;;5033458;28;19917;-72
2022/10/11 15:07:06;;;;;;;;;;;;;;;;;;5034529;28;19910;-72
2022/10/11 15:09:31;;;;;;;;;;;;;;;;;;5024857;28;20018;-72
2022/10/11 15:11:57;;;;;;;;;;;;;;;;;;5017172;28;19964;-73
2022/10/11 15:14:22;;;;;;;;;;;;;;;;;;5013313;28;19917;-72
2022/10/11 15:16:47;;;;;;;;;;;;;;;;;;5004387;28;19933;-72
2022/10/11 15:19:12;;;;;;;;;;;;;;;;;;4999268;28;19926;-72
2022/10/11 15:21:37;;;;;;;;;;;;;;;;;;5001653;28;19956;-72
2022/10/11 15:24:02;;;;;;;;;;;;;;;;;;5006493;28;19952;-72
2022/10/11 15:26:27;;;;;;;;;;;;;;;;;;5016161;28;19964;-72
2022/10/11 15:28:52;;;;;;;;;;;;;;;;;;5003487;28;19945;-72
2022/10/11 15:31:18;;;;;;;;;;;;;;;;;;5012696;28;20461;-72
2022/10/11 15:33:43;;;;;;;;;;;;;;;;;;5011179;28;19923;-72
2022/10/11 15:36:08;;;;;;;;;;;;;;;;;;5018041;28;20376;-72
2022/10/11 15:38:33;;;;;;;;;;;;;;;;;;5017631;28;20349;-72
2022/10/11 15:40:58;;;;;;;;;;;;;;;;;;5011497;28;20312;-72
2022/10/11 15:43:23;;;;;;;;;;;;;;;;;;5011076;28;19917;-72
2022/10/11 15:45:48;;;;;;;;;;;;;;;;;;5013638;28;19928;-72
2022/10/11 15:48:14;;;;;;;;;;;;;;;;;;5010876;28;19976;-71
2022/10/11 15:50:40;;;;;;;;;;;;;;;;;;5014217;28;19917;-72
2022/10/11 15:53:05;;;;;;;;;;;;;;;;;;5012707;28;20285;-72
2022/10/11 15:55:30;;;;;;;;;;;;;;;;;;5010882;28;19917;-71
2022/10/11 15:57:56;;;;;;;;;;;;;;;;;;5016708;28;19996;-72
2022/10/11 16:00:21;;;;;;;;;;;;;;;;;;5008926;28;19918;-72
2022/10/11 16:02:46;;;;;;;;;;;;;;;;;;5013879;28;20702;-72
2022/10/11 16:05:11;;;;;;;;;;;;;;;;;;5013678;28;19926;-72
2022/10/11 16:07:36;;;;;;;;;;;;;;;;;;5006064;28;19918;-72
2022/10/11 16:10:01;;;;;;;;;;;;;;;;;;5005840;28;19917;-72
2022/10/11 16:12:26;;;;;;;;;;;;;;;;;;5000926;28;20096;-72
2022/10/11 16:14:51;;;;;;;;;;;;;;;;;;5009427;28;19987;-72
2022/10/11 16:17:17;;;;;;;;;;;;;;;;;;5009813;28;20007;-72
2022/10/11 16:19:42;;;;;;;;;;;;;;;;;;5024818;28;19920;-72
2022/10/11 16:22:07;;;;;;;;;;;;;;;;;;5009244;28;19921;-72
2022/10/11 16:24:32;;;;;;;;;;;;;;;;;;5008920;28;19921;-72
2022/10/11 16:26:57;;;;;;;;;;;;;;;;;;5007334;28;20339;-72
2022/10/11 16:29:24;;;;;;;;;;;;;;;;;;5012051;28;19925;-71
2022/10/11 16:31:49;;;;;;;;;;;;;;;;;;5010719;28;19914;-71